• Join FlightAware (Why Join?)
  • Login
  • US Flag 
09:02AM EDT


 

Airport Tracker/Info


-or-


 

Live Flight TrackerFlight Track Log ✈ N1944E ✈ 21-Aug-2013 ✈ KCOD - KCPR

Flight Track Log - Related Links

Times and Time Zones

All times are in EDT time to prevent confusion due to time zone crossing. See the N1944E flight status page for this flight to view local times or setup timezone preferences in your user account.

Time Position Orientation Groundspeed Altitude Reporting Facility
EDT Latitude Longitude Course Direction KTS MPH feet Rate Location/Type
07:07PM 44.3527 -108.7489 134° Southeast  Level FlightAware Approximate
07:08PM 44.3174 -108.6985 134° Southeast  Level FlightAware Approximate
07:09PM 44.2822 -108.6481 129° Southeast  Level FlightAware Approximate
07:10PM 44.2508 -108.5930 129° Southeast  Level FlightAware Approximate
07:11PM 44.2193 -108.5380 129° Southeast  Level FlightAware Approximate
07:12PM 44.1903 -108.4806 125° Southeast  Level FlightAware Approximate
07:13PM 44.1573 -108.4276 133° Southeast  Level FlightAware Approximate
07:14PM 44.1230 -108.3761 133° Southeast  Level FlightAware Approximate
07:15PM 44.0931 -108.3196 125° Southeast  Level FlightAware Approximate
07:16PM 44.0603 -108.2666 134° Southeast  Level FlightAware Approximate
07:17PM 44.0253 -108.2160 134° Southeast  Level FlightAware Approximate
07:18PM 43.9904 -108.1655 134° Southeast  Level FlightAware Approximate
07:19PM 43.9554 -108.1151 134° Southeast  Level FlightAware Approximate
07:20PM 43.9213 -108.0636 130° Southeast  Level FlightAware Approximate
07:21PM 43.8887 -108.0101 130° Southeast  Level FlightAware Approximate
07:22PM 43.8562 -107.9568 130° Southeast  Level FlightAware Approximate
07:23PM 43.8235 -107.9035 130° Southeast  Level FlightAware Approximate
07:24PM 43.7909 -107.8502 130° Southeast  Level FlightAware Approximate
07:24PM 43.7544 -107.8047 131° Southeast 208 239 17,000  Level Salt Lake Center
07:25PM 43.7582 -107.7970 130° Southeast  Level FlightAware Approximate
07:25PM 43.7208 -107.7575 135° Southeast 190 219 17,000  Level Salt Lake Center
07:26PM 43.7256 -107.7439 130° Southeast  Level FlightAware Approximate
07:26PM 43.6864 -107.6900 125° Southeast 191 220 16,600  Level Salt Lake Center
07:27PM 43.6928 -107.6908 130° Southeast  Level FlightAware Approximate
07:27PM 43.6503 -107.6339 132° Southeast 201 231 15,800  Level Salt Lake Center
07:28PM 43.6601 -107.6378 130° Southeast  Level FlightAware Approximate
07:28PM 43.6056 -107.5661 132° Southeast 212 244 15,000  Level Salt Lake Center
07:29PM 43.6273 -107.5848 131° Southeast  Level FlightAware Approximate
07:29PM 43.5689 -107.5103 132° Southeast 207 238 14,900  Level Salt Lake Center
07:30PM 43.5375 -107.4586 130° Southeast 191 220 14,900  Level Salt Lake Center
07:31PM 43.5017 -107.3994 130° Southeast 181 208 14,900  Level Salt Lake Center
07:32PM 43.4706 -107.3508 131° Southeast 179 206 14,900  Level Salt Lake Center
07:33PM 43.4317 -107.2903 131° Southeast 181 208 15,000  Climbing Salt Lake Center
07:34PM 43.4003 -107.2411 131° Southeast 180 207 15,000  Level Salt Lake Center
07:35PM 43.3622 -107.1847 133° Southeast 180 207 15,000 -540 Level Salt Lake Center
07:36PM 43.3269 -107.1317 132° Southeast 191 220 13,900 -1,020 Descending Salt Lake Center
07:37PM 43.2903 -107.0736 131° Southeast 202 232 13,000 -480 Descending Salt Lake Center
07:38PM 43.2494 -107.0119 132° Southeast 201 231 13,000 -120 Level Salt Lake Center
07:39PM 43.2194 -106.9633 130° Southeast 187 215 12,800 -540 Descending Salt Lake Center
07:40PM 43.1856 -106.8953 124° Southeast 190 219 11,900 -840 Descending Salt Lake Center
07:41PM 43.1519 -106.8342 127° Southeast 201 231 11,100 -900 Descending Salt Lake Center
07:42PM 43.1075 -106.7731 135° Southeast 202 232 10,100 -540 Descending Salt Lake Center
07:43PM 43.0725 -106.7214 133° Southeast 199 229 10,000 -600 Descending Salt Lake Center
07:44PM 43.0350 -106.6642 132° Southeast 189 217 8,900 -1,020 Descending Salt Lake Center
07:46PM 42.9997 -106.6092 131° Southeast 193 222 8,000 -540 Descending Salt Lake Center
07:47PM 42.9625 -106.5564 134° Southeast 195 224 7,800 -240 Descending Salt Lake Center
07:49PM 42.9080 -106.4644 132° Southeast  Level Estimated